sensor_id;sensor_type;location;lat;lon;timestamp;temperature;humidity
59556;DHT22;45374;52.746;6.304;2024-02-04T00:00:15;8.40;99.90
59556;DHT22;45374;52.746;6.304;2024-02-04T00:02:40;8.40;99.90
59556;DHT22;45374;52.746;6.304;2024-02-04T00:05:06;8.50;99.90
59556;DHT22;45374;52.746;6.304;2024-02-04T00:07:32;8.40;99.90
59556;DHT22;45374;52.746;6.304;2024-02-04T00:09:57;8.40;99.90
59556;DHT22;45374;52.746;6.304;2024-02-04T00:12:23;8.40;99.90
59556;DHT22;45374;52.746;6.304;2024-02-04T00:14:48;8.40;99.90
59556;DHT22;45374;52.746;6.304;2024-02-04T00:17:17;8.20;99.90
59556;DHT22;45374;52.746;6.304;2024-02-04T00:19:43;8.20;99.90
59556;DHT22;45374;52.746;6.304;2024-02-04T00:22:09;8.20;99.90
59556;DHT22;45374;52.746;6.304;2024-02-04T00:24:34;8.30;99.90
59556;DHT22;45374;52.746;6.304;2024-02-04T00:27:00;8.30;99.90
59556;DHT22;45374;52.746;6.304;2024-02-04T00:29:25;8.40;99.90
59556;DHT22;45374;52.746;6.304;2024-02-04T00:31:51;8.40;99.90
59556;DHT22;45374;52.746;6.304;2024-02-04T00:34:16;8.30;99.90
59556;DHT22;45374;52.746;6.304;2024-02-04T00:36:42;8.30;99.90
59556;DHT22;45374;52.746;6.304;2024-02-04T00:39:08;8.40;99.90
59556;DHT22;45374;52.746;6.304;2024-02-04T00:41:34;8.30;99.90
59556;DHT22;45374;52.746;6.304;2024-02-04T00:44:00;8.20;99.90
59556;DHT22;45374;52.746;6.304;2024-02-04T00:46:26;8.10;99.90
59556;DHT22;45374;52.746;6.304;2024-02-04T00:48:52;8.10;99.90
59556;DHT22;45374;52.746;6.304;2024-02-04T00:51:18;8.10;99.90
59556;DHT22;45374;52.746;6.304;2024-02-04T00:53:45;8.00;99.90
59556;DHT22;45374;52.746;6.304;2024-02-04T00:56:10;8.00;99.90
59556;DHT22;45374;52.746;6.304;2024-02-04T00:58:37;8.00;99.90
59556;DHT22;45374;52.746;6.304;2024-02-04T01:01:03;8.00;99.90
59556;DHT22;45374;52.746;6.304;2024-02-04T01:03:28;8.00;99.90
59556;DHT22;45374;52.746;6.304;2024-02-04T01:05:54;7.90;99.90
59556;DHT22;45374;52.746;6.304;2024-02-04T01:08:21;8.00;99.90
59556;DHT22;45374;52.746;6.304;2024-02-04T01:10:47;8.00;99.90
59556;DHT22;45374;52.746;6.304;2024-02-04T01:13:12;8.00;99.90
59556;DHT22;45374;52.746;6.304;2024-02-04T01:15:38;8.10;99.90
59556;DHT22;45374;52.746;6.304;2024-02-04T01:18:05;8.10;99.90
59556;DHT22;45374;52.746;6.304;2024-02-04T01:20:30;8.10;99.90
59556;DHT22;45374;52.746;6.304;2024-02-04T01:22:56;8.10;99.90
59556;DHT22;45374;52.746;6.304;2024-02-04T01:25:21;8.10;99.90
59556;DHT22;45374;52.746;6.304;2024-02-04T01:27:47;8.10;99.90
59556;DHT22;45374;52.746;6.304;2024-02-04T01:30:12;8.10;99.90
59556;DHT22;45374;52.746;6.304;2024-02-04T01:32:38;8.00;99.90
59556;DHT22;45374;52.746;6.304;2024-02-04T01:35:04;8.00;99.90
59556;DHT22;45374;52.746;6.304;2024-02-04T01:37:29;7.90;99.90
59556;DHT22;45374;52.746;6.304;2024-02-04T01:39:55;7.90;99.90
59556;DHT22;45374;52.746;6.304;2024-02-04T01:42:20;7.80;99.90
59556;DHT22;45374;52.746;6.304;2024-02-04T01:44:47;7.80;99.90
59556;DHT22;45374;52.746;6.304;2024-02-04T01:47:13;7.80;99.90
59556;DHT22;45374;52.746;6.304;2024-02-04T01:49:38;7.80;99.90
59556;DHT22;45374;52.746;6.304;2024-02-04T01:52:05;7.80;99.90
59556;DHT22;45374;52.746;6.304;2024-02-04T01:54:31;7.70;99.90
59556;DHT22;45374;52.746;6.304;2024-02-04T01:56:58;7.70;99.90
59556;DHT22;45374;52.746;6.304;2024-02-04T01:59:24;7.70;99.90
59556;DHT22;45374;52.746;6.304;2024-02-04T02:01:57;7.70;99.90
59556;DHT22;45374;52.746;6.304;2024-02-04T02:04:24;7.70;99.90
59556;DHT22;45374;52.746;6.304;2024-02-04T02:06:51;7.60;99.90
59556;DHT22;45374;52.746;6.304;2024-02-04T02:09:17;7.60;99.90
59556;DHT22;45374;52.746;6.304;2024-02-04T02:11:46;7.70;99.90
59556;DHT22;45374;52.746;6.304;2024-02-04T02:14:14;7.60;99.90
59556;DHT22;45374;52.746;6.304;2024-02-04T02:16:42;7.60;99.90
59556;DHT22;45374;52.746;6.304;2024-02-04T02:19:15;7.50;99.90
59556;DHT22;45374;52.746;6.304;2024-02-04T02:21:56;7.50;99.90
59556;DHT22;45374;52.746;6.304;2024-02-04T02:26:49;7.50;99.90
59556;DHT22;45374;52.746;6.304;2024-02-04T02:29:15;7.50;99.90
59556;DHT22;45374;52.746;6.304;2024-02-04T02:31:41;7.50;99.90
59556;DHT22;45374;52.746;6.304;2024-02-04T02:34:08;7.50;99.90
59556;DHT22;45374;52.746;6.304;2024-02-04T02:36:41;7.40;99.90
59556;DHT22;45374;52.746;6.304;2024-02-04T02:39:15;7.50;99.90
59556;DHT22;45374;52.746;6.304;2024-02-04T02:41:42;7.40;99.90
59556;DHT22;45374;52.746;6.304;2024-02-04T02:44:09;7.30;99.90
59556;DHT22;45374;52.746;6.304;2024-02-04T02:46:37;7.30;99.90
59556;DHT22;45374;52.746;6.304;2024-02-04T02:49:03;7.20;99.90
59556;DHT22;45374;52.746;6.304;2024-02-04T02:51:29;7.10;99.90
59556;DHT22;45374;52.746;6.304;2024-02-04T02:53:55;7.10;99.90
59556;DHT22;45374;52.746;6.304;2024-02-04T02:56:20;7.10;99.90
59556;DHT22;45374;52.746;6.304;2024-02-04T02:58:46;7.10;99.90
59556;DHT22;45374;52.746;6.304;2024-02-04T03:01:11;7.10;99.90
59556;DHT22;45374;52.746;6.304;2024-02-04T03:03:37;7.10;99.90
59556;DHT22;45374;52.746;6.304;2024-02-04T03:06:02;7.00;99.90
59556;DHT22;45374;52.746;6.304;2024-02-04T03:08:28;7.00;99.90
59556;DHT22;45374;52.746;6.304;2024-02-04T03:10:53;7.00;99.90
59556;DHT22;45374;52.746;6.304;2024-02-04T03:13:19;6.90;99.90
59556;DHT22;45374;52.746;6.304;2024-02-04T03:15:45;6.90;99.90
59556;DHT22;45374;52.746;6.304;2024-02-04T03:18:11;6.90;99.90
59556;DHT22;45374;52.746;6.304;2024-02-04T03:20:36;6.90;99.90
59556;DHT22;45374;52.746;6.304;2024-02-04T03:23:02;6.90;99.90
59556;DHT22;45374;52.746;6.304;2024-02-04T03:25:27;6.90;99.90
59556;DHT22;45374;52.746;6.304;2024-02-04T03:27:54;6.80;99.90
59556;DHT22;45374;52.746;6.304;2024-02-04T03:30:20;6.90;99.90
59556;DHT22;45374;52.746;6.304;2024-02-04T03:32:45;6.80;99.90
59556;DHT22;45374;52.746;6.304;2024-02-04T03:35:11;6.80;99.90
59556;DHT22;45374;52.746;6.304;2024-02-04T03:37:37;6.80;99.90
59556;DHT22;45374;52.746;6.304;2024-02-04T03:40:02;6.80;99.90
59556;DHT22;45374;52.746;6.304;2024-02-04T03:42:28;6.80;99.90
59556;DHT22;45374;52.746;6.304;2024-02-04T03:44:54;6.80;99.90
59556;DHT22;45374;52.746;6.304;2024-02-04T03:47:19;6.80;99.90
59556;DHT22;45374;52.746;6.304;2024-02-04T03:49:45;6.80;99.90
59556;DHT22;45374;52.746;6.304;2024-02-04T03:52:10;6.80;99.90
59556;DHT22;45374;52.746;6.304;2024-02-04T03:54:36;6.80;99.90
59556;DHT22;45374;52.746;6.304;2024-02-04T03:57:01;6.80;99.90
59556;DHT22;45374;52.746;6.304;2024-02-04T03:59:27;6.90;99.90
59556;DHT22;45374;52.746;6.304;2024-02-04T04:01:52;6.90;99.90
59556;DHT22;45374;52.746;6.304;2024-02-04T04:04:23;6.90;99.90
59556;DHT22;45374;52.746;6.304;2024-02-04T04:06:48;6.80;99.90
59556;DHT22;45374;52.746;6.304;2024-02-04T04:09:14;6.80;99.90
59556;DHT22;45374;52.746;6.304;2024-02-04T04:11:40;6.90;99.90
59556;DHT22;45374;52.746;6.304;2024-02-04T04:14:05;6.90;99.90
59556;DHT22;45374;52.746;6.304;2024-02-04T04:16:31;6.90;99.90
59556;DHT22;45374;52.746;6.304;2024-02-04T04:18:57;6.90;99.90
59556;DHT22;45374;52.746;6.304;2024-02-04T04:21:24;6.90;99.90
59556;DHT22;45374;52.746;6.304;2024-02-04T04:23:49;6.90;99.90
59556;DHT22;45374;52.746;6.304;2024-02-04T04:26:15;6.90;99.90
59556;DHT22;45374;52.746;6.304;2024-02-04T04:28:40;6.90;99.90
59556;DHT22;45374;52.746;6.304;2024-02-04T04:31:06;6.90;99.90
59556;DHT22;45374;52.746;6.304;2024-02-04T04:33:32;7.00;99.90
59556;DHT22;45374;52.746;6.304;2024-02-04T04:35:57;6.90;99.90
59556;DHT22;45374;52.746;6.304;2024-02-04T04:38:23;7.00;99.90
59556;DHT22;45374;52.746;6.304;2024-02-04T04:40:48;6.90;99.90
59556;DHT22;45374;52.746;6.304;2024-02-04T04:43:14;7.00;99.90
59556;DHT22;45374;52.746;6.304;2024-02-04T04:45:40;7.00;99.90
59556;DHT22;45374;52.746;6.304;2024-02-04T04:48:06;7.00;99.90
59556;DHT22;45374;52.746;6.304;2024-02-04T04:50:35;7.10;99.90
59556;DHT22;45374;52.746;6.304;2024-02-04T04:53:01;7.10;99.90
59556;DHT22;45374;52.746;6.304;2024-02-04T04:55:27;7.10;99.90
59556;DHT22;45374;52.746;6.304;2024-02-04T04:57:52;7.10;99.90
59556;DHT22;45374;52.746;6.304;2024-02-04T05:00:18;7.10;99.90
59556;DHT22;45374;52.746;6.304;2024-02-04T05:02:44;7.20;99.90
59556;DHT22;45374;52.746;6.304;2024-02-04T05:05:13;7.20;99.90
59556;DHT22;45374;52.746;6.304;2024-02-04T05:07:39;7.20;99.90
59556;DHT22;45374;52.746;6.304;2024-02-04T05:10:05;7.20;99.90
59556;DHT22;45374;52.746;6.304;2024-02-04T05:12:32;7.20;99.90
59556;DHT22;45374;52.746;6.304;2024-02-04T05:14:58;7.20;99.90
59556;DHT22;45374;52.746;6.304;2024-02-04T05:17:23;7.20;99.90
59556;DHT22;45374;52.746;6.304;2024-02-04T05:19:49;7.20;99.90
59556;DHT22;45374;52.746;6.304;2024-02-04T05:22:15;7.20;99.90
59556;DHT22;45374;52.746;6.304;2024-02-04T05:24:41;7.30;99.90
59556;DHT22;45374;52.746;6.304;2024-02-04T05:27:06;7.30;99.90
59556;DHT22;45374;52.746;6.304;2024-02-04T05:29:32;7.30;99.90
59556;DHT22;45374;52.746;6.304;2024-02-04T05:31:57;7.30;99.90
59556;DHT22;45374;52.746;6.304;2024-02-04T05:34:23;7.30;99.90
59556;DHT22;45374;52.746;6.304;2024-02-04T05:36:48;7.30;99.90
59556;DHT22;45374;52.746;6.304;2024-02-04T05:39:15;7.30;99.90
59556;DHT22;45374;52.746;6.304;2024-02-04T05:41:42;7.30;99.90
59556;DHT22;45374;52.746;6.304;2024-02-04T05:44:08;7.30;99.90
59556;DHT22;45374;52.746;6.304;2024-02-04T05:46:37;7.40;99.90
59556;DHT22;45374;52.746;6.304;2024-02-04T05:49:03;7.40;99.90
59556;DHT22;45374;52.746;6.304;2024-02-04T05:51:32;7.40;99.90
59556;DHT22;45374;52.746;6.304;2024-02-04T05:53:57;7.40;99.90
59556;DHT22;45374;52.746;6.304;2024-02-04T05:56:23;7.40;99.90
59556;DHT22;45374;52.746;6.304;2024-02-04T05:58:48;7.50;99.90
59556;DHT22;45374;52.746;6.304;2024-02-04T06:01:15;7.50;99.90
59556;DHT22;45374;52.746;6.304;2024-02-04T06:03:42;7.50;99.90
59556;DHT22;45374;52.746;6.304;2024-02-04T06:06:14;7.50;99.90
59556;DHT22;45374;52.746;6.304;2024-02-04T06:08:39;7.50;99.90
59556;DHT22;45374;52.746;6.304;2024-02-04T06:11:05;7.50;99.90
59556;DHT22;45374;52.746;6.304;2024-02-04T06:13:30;7.50;99.90
59556;DHT22;45374;52.746;6.304;2024-02-04T06:15:56;7.50;99.90
59556;DHT22;45374;52.746;6.304;2024-02-04T06:18:22;7.50;99.90
59556;DHT22;45374;52.746;6.304;2024-02-04T06:20:47;7.50;99.90
59556;DHT22;45374;52.746;6.304;2024-02-04T06:23:13;7.50;99.90
59556;DHT22;45374;52.746;6.304;2024-02-04T06:25:38;7.50;99.90
59556;DHT22;45374;52.746;6.304;2024-02-04T06:28:04;7.50;99.90
59556;DHT22;45374;52.746;6.304;2024-02-04T06:30:29;7.50;99.90
59556;DHT22;45374;52.746;6.304;2024-02-04T06:32:55;7.40;99.90
59556;DHT22;45374;52.746;6.304;2024-02-04T06:35:22;7.40;99.90
59556;DHT22;45374;52.746;6.304;2024-02-04T06:37:47;7.50;99.90
59556;DHT22;45374;52.746;6.304;2024-02-04T06:40:13;7.40;99.90
59556;DHT22;45374;52.746;6.304;2024-02-04T06:42:38;7.40;99.90
59556;DHT22;45374;52.746;6.304;2024-02-04T06:45:04;7.40;99.90
59556;DHT22;45374;52.746;6.304;2024-02-04T06:47:30;7.40;99.90
59556;DHT22;45374;52.746;6.304;2024-02-04T06:49:55;7.50;99.90
59556;DHT22;45374;52.746;6.304;2024-02-04T06:52:21;7.50;99.90
59556;DHT22;45374;52.746;6.304;2024-02-04T06:54:46;7.40;99.90
59556;DHT22;45374;52.746;6.304;2024-02-04T06:57:12;7.50;99.90
59556;DHT22;45374;52.746;6.304;2024-02-04T06:59:37;7.50;99.90
59556;DHT22;45374;52.746;6.304;2024-02-04T07:02:03;7.50;99.90
59556;DHT22;45374;52.746;6.304;2024-02-04T07:04:29;7.50;99.90
59556;DHT22;45374;52.746;6.304;2024-02-04T07:06:54;7.50;99.90
59556;DHT22;45374;52.746;6.304;2024-02-04T07:09:20;7.60;99.90
59556;DHT22;45374;52.746;6.304;2024-02-04T07:11:45;7.60;99.90
59556;DHT22;45374;52.746;6.304;2024-02-04T07:14:11;7.60;99.90
59556;DHT22;45374;52.746;6.304;2024-02-04T07:16:36;7.60;99.90
59556;DHT22;45374;52.746;6.304;2024-02-04T07:19:02;7.60;99.90
59556;DHT22;45374;52.746;6.304;2024-02-04T07:21:28;7.60;99.90
59556;DHT22;45374;52.746;6.304;2024-02-04T07:23:53;7.70;99.90
59556;DHT22;45374;52.746;6.304;2024-02-04T07:26:19;7.70;99.90
59556;DHT22;45374;52.746;6.304;2024-02-04T07:28:44;7.70;99.90
59556;DHT22;45374;52.746;6.304;2024-02-04T07:31:10;7.70;99.90
59556;DHT22;45374;52.746;6.304;2024-02-04T07:33:36;7.70;99.90
59556;DHT22;45374;52.746;6.304;2024-02-04T07:36:02;7.70;99.90
59556;DHT22;45374;52.746;6.304;2024-02-04T07:38:27;7.80;99.90
59556;DHT22;45374;52.746;6.304;2024-02-04T07:40:53;7.80;99.90
59556;DHT22;45374;52.746;6.304;2024-02-04T07:43:21;7.90;99.90
59556;DHT22;45374;52.746;6.304;2024-02-04T07:45:46;8.00;99.90
59556;DHT22;45374;52.746;6.304;2024-02-04T07:48:12;8.00;99.90
59556;DHT22;45374;52.746;6.304;2024-02-04T07:50:37;8.10;99.90
59556;DHT22;45374;52.746;6.304;2024-02-04T07:53:03;8.10;99.90
59556;DHT22;45374;52.746;6.304;2024-02-04T07:55:29;8.10;99.90
59556;DHT22;45374;52.746;6.304;2024-02-04T07:57:54;8.20;99.90
59556;DHT22;45374;52.746;6.304;2024-02-04T08:00:20;8.20;99.90
59556;DHT22;45374;52.746;6.304;2024-02-04T08:02:45;8.30;99.90
59556;DHT22;45374;52.746;6.304;2024-02-04T08:05:12;8.40;99.90
59556;DHT22;45374;52.746;6.304;2024-02-04T08:07:38;8.40;99.90
59556;DHT22;45374;52.746;6.304;2024-02-04T08:10:04;8.40;99.90
59556;DHT22;45374;52.746;6.304;2024-02-04T08:12:30;8.50;99.90
59556;DHT22;45374;52.746;6.304;2024-02-04T08:14:55;8.50;99.90
59556;DHT22;45374;52.746;6.304;2024-02-04T08:17:21;8.60;99.90
59556;DHT22;45374;52.746;6.304;2024-02-04T08:19:47;8.60;99.90
59556;DHT22;45374;52.746;6.304;2024-02-04T08:22:12;8.60;99.90
59556;DHT22;45374;52.746;6.304;2024-02-04T08:24:38;8.70;99.90
59556;DHT22;45374;52.746;6.304;2024-02-04T08:27:04;8.70;99.90
59556;DHT22;45374;52.746;6.304;2024-02-04T08:29:29;8.60;99.90
59556;DHT22;45374;52.746;6.304;2024-02-04T08:31:55;8.70;99.90
59556;DHT22;45374;52.746;6.304;2024-02-04T08:34:20;8.60;99.90
59556;DHT22;45374;52.746;6.304;2024-02-04T08:36:49;8.60;99.90
59556;DHT22;45374;52.746;6.304;2024-02-04T08:39:15;8.60;99.90
59556;DHT22;45374;52.746;6.304;2024-02-04T08:41:41;8.60;99.90
59556;DHT22;45374;52.746;6.304;2024-02-04T08:44:06;8.60;99.90
59556;DHT22;45374;52.746;6.304;2024-02-04T08:46:32;8.60;99.90
59556;DHT22;45374;52.746;6.304;2024-02-04T08:48:57;8.60;99.90
59556;DHT22;45374;52.746;6.304;2024-02-04T08:51:23;8.70;99.90
59556;DHT22;45374;52.746;6.304;2024-02-04T08:53:48;8.60;99.90
59556;DHT22;45374;52.746;6.304;2024-02-04T08:56:14;8.60;99.90
59556;DHT22;45374;52.746;6.304;2024-02-04T08:58:40;8.70;99.90
59556;DHT22;45374;52.746;6.304;2024-02-04T09:01:06;8.70;99.90
59556;DHT22;45374;52.746;6.304;2024-02-04T09:03:32;8.70;99.90
59556;DHT22;45374;52.746;6.304;2024-02-04T09:05:58;8.70;99.90
59556;DHT22;45374;52.746;6.304;2024-02-04T09:08:23;8.70;99.90
59556;DHT22;45374;52.746;6.304;2024-02-04T09:10:49;8.70;99.90
59556;DHT22;45374;52.746;6.304;2024-02-04T09:13:15;8.80;99.90
59556;DHT22;45374;52.746;6.304;2024-02-04T09:15:40;8.80;99.90
59556;DHT22;45374;52.746;6.304;2024-02-04T09:18:06;8.90;99.90
59556;DHT22;45374;52.746;6.304;2024-02-04T09:20:31;8.90;99.90
59556;DHT22;45374;52.746;6.304;2024-02-04T09:22:57;9.00;99.90
59556;DHT22;45374;52.746;6.304;2024-02-04T09:25:24;9.00;99.90
59556;DHT22;45374;52.746;6.304;2024-02-04T09:27:50;9.10;99.90
59556;DHT22;45374;52.746;6.304;2024-02-04T09:30:15;9.10;99.90
59556;DHT22;45374;52.746;6.304;2024-02-04T09:32:41;9.10;99.90
59556;DHT22;45374;52.746;6.304;2024-02-04T09:35:07;9.10;99.90
59556;DHT22;45374;52.746;6.304;2024-02-04T09:37:34;9.20;99.90
59556;DHT22;45374;52.746;6.304;2024-02-04T09:40:00;9.30;99.90
59556;DHT22;45374;52.746;6.304;2024-02-04T09:42:25;9.30;99.90
59556;DHT22;45374;52.746;6.304;2024-02-04T09:44:53;9.30;99.90
59556;DHT22;45374;52.746;6.304;2024-02-04T09:47:20;9.30;99.90
59556;DHT22;45374;52.746;6.304;2024-02-04T09:49:46;9.30;99.90
59556;DHT22;45374;52.746;6.304;2024-02-04T09:52:13;9.30;99.90
59556;DHT22;45374;52.746;6.304;2024-02-04T09:54:56;9.40;99.90
59556;DHT22;45374;52.746;6.304;2024-02-04T09:57:24;9.30;99.90
59556;DHT22;45374;52.746;6.304;2024-02-04T09:59:49;9.40;99.90
59556;DHT22;45374;52.746;6.304;2024-02-04T10:02:15;9.40;99.90
59556;DHT22;45374;52.746;6.304;2024-02-04T10:04:41;9.20;99.90
59556;DHT22;45374;52.746;6.304;2024-02-04T10:07:06;9.30;99.90
59556;DHT22;45374;52.746;6.304;2024-02-04T10:09:32;9.20;99.90
59556;DHT22;45374;52.746;6.304;2024-02-04T10:11:58;9.30;99.90
59556;DHT22;45374;52.746;6.304;2024-02-04T10:14:23;9.40;99.90
59556;DHT22;45374;52.746;6.304;2024-02-04T10:16:49;9.50;99.90
59556;DHT22;45374;52.746;6.304;2024-02-04T10:19:15;9.60;99.90
59556;DHT22;45374;52.746;6.304;2024-02-04T10:21:41;9.60;99.90
59556;DHT22;45374;52.746;6.304;2024-02-04T10:24:06;9.60;99.90
59556;DHT22;45374;52.746;6.304;2024-02-04T10:26:33;9.70;99.90
59556;DHT22;45374;52.746;6.304;2024-02-04T10:29:02;9.70;99.90
59556;DHT22;45374;52.746;6.304;2024-02-04T10:31:27;9.70;99.90
59556;DHT22;45374;52.746;6.304;2024-02-04T10:33:54;9.70;99.90
59556;DHT22;45374;52.746;6.304;2024-02-04T10:36:20;9.60;99.90
59556;DHT22;45374;52.746;6.304;2024-02-04T10:38:46;9.50;99.90
59556;DHT22;45374;52.746;6.304;2024-02-04T10:41:15;9.50;99.90
59556;DHT22;45374;52.746;6.304;2024-02-04T10:43:43;9.50;99.90
59556;DHT22;45374;52.746;6.304;2024-02-04T10:46:12;9.40;99.90
59556;DHT22;45374;52.746;6.304;2024-02-04T10:48:41;9.30;99.90
59556;DHT22;45374;52.746;6.304;2024-02-04T10:51:15;9.30;99.90
59556;DHT22;45374;52.746;6.304;2024-02-04T10:53:45;9.20;99.90
59556;DHT22;45374;52.746;6.304;2024-02-04T10:56:19;9.20;99.90
59556;DHT22;45374;52.746;6.304;2024-02-04T10:58:47;9.30;99.90
59556;DHT22;45374;52.746;6.304;2024-02-04T11:01:14;9.30;99.90
59556;DHT22;45374;52.746;6.304;2024-02-04T11:03:40;9.40;99.90
59556;DHT22;45374;52.746;6.304;2024-02-04T11:06:08;9.50;99.90
59556;DHT22;45374;52.746;6.304;2024-02-04T11:08:35;9.60;99.90
59556;DHT22;45374;52.746;6.304;2024-02-04T11:11:01;9.80;99.90
59556;DHT22;45374;52.746;6.304;2024-02-04T11:13:27;9.80;99.90
59556;DHT22;45374;52.746;6.304;2024-02-04T11:15:54;9.80;99.90
59556;DHT22;45374;52.746;6.304;2024-02-04T11:18:54;9.80;99.90
59556;DHT22;45374;52.746;6.304;2024-02-04T11:21:52;9.80;99.90
59556;DHT22;45374;52.746;6.304;2024-02-04T11:24:43;9.80;99.90
59556;DHT22;45374;52.746;6.304;2024-02-04T11:27:09;9.80;99.90
59556;DHT22;45374;52.746;6.304;2024-02-04T11:29:36;9.80;99.90
59556;DHT22;45374;52.746;6.304;2024-02-04T11:32:02;9.80;99.90
59556;DHT22;45374;52.746;6.304;2024-02-04T11:34:28;9.80;99.90
59556;DHT22;45374;52.746;6.304;2024-02-04T11:36:54;9.80;99.90
59556;DHT22;45374;52.746;6.304;2024-02-04T11:39:19;9.90;99.90
59556;DHT22;45374;52.746;6.304;2024-02-04T11:41:49;9.90;99.90
59556;DHT22;45374;52.746;6.304;2024-02-04T11:44:26;10.00;99.90
59556;DHT22;45374;52.746;6.304;2024-02-04T11:46:52;9.90;99.90
59556;DHT22;45374;52.746;6.304;2024-02-04T11:49:25;10.00;99.90
59556;DHT22;45374;52.746;6.304;2024-02-04T11:51:51;9.90;99.90
59556;DHT22;45374;52.746;6.304;2024-02-04T11:54:19;10.00;99.90
59556;DHT22;45374;52.746;6.304;2024-02-04T11:56:47;10.00;99.90
59556;DHT22;45374;52.746;6.304;2024-02-04T11:59:19;10.00;99.90
59556;DHT22;45374;52.746;6.304;2024-02-04T12:01:48;10.00;99.90
59556;DHT22;45374;52.746;6.304;2024-02-04T12:04:16;10.10;99.90
59556;DHT22;45374;52.746;6.304;2024-02-04T12:06:42;10.10;99.90
59556;DHT22;45374;52.746;6.304;2024-02-04T12:09:09;10.10;99.90
59556;DHT22;45374;52.746;6.304;2024-02-04T12:11:39;10.10;99.90
59556;DHT22;45374;52.746;6.304;2024-02-04T12:14:05;10.00;99.90
59556;DHT22;45374;52.746;6.304;2024-02-04T12:16:32;9.90;99.90
59556;DHT22;45374;52.746;6.304;2024-02-04T12:19:00;10.00;99.90
59556;DHT22;45374;52.746;6.304;2024-02-04T12:21:26;10.00;99.90
59556;DHT22;45374;52.746;6.304;2024-02-04T12:23:52;10.00;99.90
59556;DHT22;45374;52.746;6.304;2024-02-04T12:26:18;10.00;99.90
59556;DHT22;45374;52.746;6.304;2024-02-04T12:28:44;9.90;99.90
59556;DHT22;45374;52.746;6.304;2024-02-04T12:31:25;10.00;99.90
59556;DHT22;45374;52.746;6.304;2024-02-04T12:33:58;10.00;99.90
59556;DHT22;45374;52.746;6.304;2024-02-04T12:36:28;10.00;99.90
59556;DHT22;45374;52.746;6.304;2024-02-04T12:38:55;10.00;99.90
59556;DHT22;45374;52.746;6.304;2024-02-04T12:41:21;9.90;99.90
59556;DHT22;45374;52.746;6.304;2024-02-04T12:43:57;10.00;99.90
59556;DHT22;45374;52.746;6.304;2024-02-04T12:46:28;10.00;99.90
59556;DHT22;45374;52.746;6.304;2024-02-04T12:48:58;10.00;99.90
59556;DHT22;45374;52.746;6.304;2024-02-04T12:51:28;10.00;99.90
59556;DHT22;45374;52.746;6.304;2024-02-04T12:54:07;10.00;99.90
59556;DHT22;45374;52.746;6.304;2024-02-04T12:59:26;10.00;99.90
59556;DHT22;45374;52.746;6.304;2024-02-04T13:02:01;10.10;99.90
59556;DHT22;45374;52.746;6.304;2024-02-04T13:04:42;10.10;99.90
59556;DHT22;45374;52.746;6.304;2024-02-04T13:07:12;10.10;99.90
59556;DHT22;45374;52.746;6.304;2024-02-04T13:09:43;10.00;99.90
59556;DHT22;45374;52.746;6.304;2024-02-04T13:12:09;10.00;99.90
59556;DHT22;45374;52.746;6.304;2024-02-04T13:14:38;10.00;99.90
59556;DHT22;45374;52.746;6.304;2024-02-04T13:17:04;10.00;99.90
59556;DHT22;45374;52.746;6.304;2024-02-04T13:19:34;10.10;99.90
59556;DHT22;45374;52.746;6.304;2024-02-04T13:22:00;10.00;99.90
59556;DHT22;45374;52.746;6.304;2024-02-04T13:24:26;10.10;99.90
59556;DHT22;45374;52.746;6.304;2024-02-04T13:26:51;10.10;99.90
59556;DHT22;45374;52.746;6.304;2024-02-04T13:29:17;10.10;99.90
59556;DHT22;45374;52.746;6.304;2024-02-04T13:31:42;10.00;99.90
59556;DHT22;45374;52.746;6.304;2024-02-04T13:34:08;10.10;99.90
59556;DHT22;45374;52.746;6.304;2024-02-04T13:36:34;10.10;99.90
59556;DHT22;45374;52.746;6.304;2024-02-04T13:38:59;10.10;99.90
59556;DHT22;45374;52.746;6.304;2024-02-04T13:41:25;10.10;99.90
59556;DHT22;45374;52.746;6.304;2024-02-04T13:43:50;10.10;99.90
59556;DHT22;45374;52.746;6.304;2024-02-04T13:46:16;10.10;99.90
59556;DHT22;45374;52.746;6.304;2024-02-04T13:48:43;10.00;99.90
59556;DHT22;45374;52.746;6.304;2024-02-04T13:51:08;10.00;99.90
59556;DHT22;45374;52.746;6.304;2024-02-04T13:53:34;10.00;99.90
59556;DHT22;45374;52.746;6.304;2024-02-04T13:56:01;10.00;99.90
59556;DHT22;45374;52.746;6.304;2024-02-04T13:58:26;10.00;99.90
59556;DHT22;45374;52.746;6.304;2024-02-04T14:00:53;10.00;99.90
59556;DHT22;45374;52.746;6.304;2024-02-04T14:03:18;10.00;99.90
59556;DHT22;45374;52.746;6.304;2024-02-04T14:05:45;10.10;99.90
59556;DHT22;45374;52.746;6.304;2024-02-04T14:08:10;10.00;99.90
59556;DHT22;45374;52.746;6.304;2024-02-04T14:10:36;10.00;99.90
59556;DHT22;45374;52.746;6.304;2024-02-04T14:13:04;10.00;99.90
59556;DHT22;45374;52.746;6.304;2024-02-04T14:15:30;10.00;99.90
59556;DHT22;45374;52.746;6.304;2024-02-04T14:17:56;9.90;99.90
59556;DHT22;45374;52.746;6.304;2024-02-04T14:20:22;9.90;99.90
59556;DHT22;45374;52.746;6.304;2024-02-04T14:22:49;9.90;99.90
59556;DHT22;45374;52.746;6.304;2024-02-04T14:25:16;9.80;99.90
59556;DHT22;45374;52.746;6.304;2024-02-04T14:27:41;9.80;99.90
59556;DHT22;45374;52.746;6.304;2024-02-04T14:30:07;9.80;99.90
59556;DHT22;45374;52.746;6.304;2024-02-04T14:32:34;9.70;99.90
59556;DHT22;45374;52.746;6.304;2024-02-04T14:35:00;9.60;99.90
59556;DHT22;45374;52.746;6.304;2024-02-04T14:37:26;9.50;99.90
59556;DHT22;45374;52.746;6.304;2024-02-04T14:39:51;9.40;99.90
59556;DHT22;45374;52.746;6.304;2024-02-04T14:42:18;9.30;99.90
59556;DHT22;45374;52.746;6.304;2024-02-04T14:44:44;9.30;99.90
59556;DHT22;45374;52.746;6.304;2024-02-04T14:47:10;9.30;99.90
59556;DHT22;45374;52.746;6.304;2024-02-04T14:49:36;9.30;99.90
59556;DHT22;45374;52.746;6.304;2024-02-04T14:52:03;9.30;99.90
59556;DHT22;45374;52.746;6.304;2024-02-04T14:54:29;9.20;99.90
59556;DHT22;45374;52.746;6.304;2024-02-04T14:56:54;9.30;99.90
59556;DHT22;45374;52.746;6.304;2024-02-04T14:59:20;9.20;99.90
59556;DHT22;45374;52.746;6.304;2024-02-04T15:01:46;9.30;99.90
59556;DHT22;45374;52.746;6.304;2024-02-04T15:04:13;9.40;99.90
59556;DHT22;45374;52.746;6.304;2024-02-04T15:06:39;9.40;99.90
59556;DHT22;45374;52.746;6.304;2024-02-04T15:09:05;9.50;99.90
59556;DHT22;45374;52.746;6.304;2024-02-04T15:11:31;9.50;99.90
59556;DHT22;45374;52.746;6.304;2024-02-04T15:13:58;9.60;99.90
59556;DHT22;45374;52.746;6.304;2024-02-04T15:16:24;9.60;99.90
59556;DHT22;45374;52.746;6.304;2024-02-04T15:18:50;9.60;99.90
59556;DHT22;45374;52.746;6.304;2024-02-04T15:21:16;9.60;99.90
59556;DHT22;45374;52.746;6.304;2024-02-04T15:23:41;9.70;99.90
59556;DHT22;45374;52.746;6.304;2024-02-04T15:26:10;9.70;99.90
59556;DHT22;45374;52.746;6.304;2024-02-04T15:28:37;9.60;99.90
59556;DHT22;45374;52.746;6.304;2024-02-04T15:31:03;9.70;99.90
59556;DHT22;45374;52.746;6.304;2024-02-04T15:33:29;9.70;99.90
59556;DHT22;45374;52.746;6.304;2024-02-04T15:35:55;9.60;99.90
59556;DHT22;45374;52.746;6.304;2024-02-04T15:38:20;9.70;99.90
59556;DHT22;45374;52.746;6.304;2024-02-04T15:40:46;9.50;99.90
59556;DHT22;45374;52.746;6.304;2024-02-04T15:43:12;9.50;99.90
59556;DHT22;45374;52.746;6.304;2024-02-04T15:45:37;9.60;99.90